Time;durP1;ratioP1;P1;durP2;ratioP2;P2;SDS_P1;SDS_P2;PMS_P1;PMS_P2;Temp;Humidity;BMP_temperature;BMP_pressure;BME280_temperature;BME280_humidity;BME280_pressure;Samples;Min_cycle;Max_cycle;Signal;HPM_P1;HPM_P2
2021/06/24 00:00:10;;;;;;;6.70;2.45;;;;;;;;;;6227932;23;20036;-82
2021/06/24 00:02:37;;;;;;;8.80;2.55;;;;;;;;;;6253789;23;20083;-83
2021/06/24 00:05:04;;;;;;;5.45;2.67;;;;;;;;;;6226849;23;20024;-82
2021/06/24 00:07:31;;;;;;;7.28;3.00;;;;;;;;;;6226809;23;20020;-83
2021/06/24 00:09:58;;;;;;;8.70;2.50;;;;;;;;;;6227394;23;20036;-84
2021/06/24 00:12:24;;;;;;;7.25;2.42;;;;;;;;;;6253825;23;20038;-82
2021/06/24 00:14:51;;;;;;;5.25;2.60;;;;;;;;;;6242054;23;20008;-82
2021/06/24 00:17:18;;;;;;;8.93;2.58;;;;;;;;;;6242317;23;20012;-83
2021/06/24 00:19:44;;;;;;;9.27;3.55;;;;;;;;;;6252369;23;20036;-83
2021/06/24 00:22:11;;;;;;;7.70;3.00;;;;;;;;;;6225529;23;20024;-83
2021/06/24 00:24:37;;;;;;;11.60;3.03;;;;;;;;;;6225795;23;20020;-82
2021/06/24 00:27:04;;;;;;;5.88;2.60;;;;;;;;;;6252962;23;20048;-84
2021/06/24 00:29:31;;;;;;;7.43;2.97;;;;;;;;;;6253244;23;20087;-83
2021/06/24 00:32:04;;;;;;;12.50;2.88;;;;;;;;;;6225938;23;20137;-83
2021/06/24 00:34:30;;;;;;;10.07;3.40;;;;;;;;;;6254319;23;20028;-83
2021/06/24 00:36:57;;;;;;;8.75;2.90;;;;;;;;;;6254749;23;20306;-83
2021/06/24 00:39:23;;;;;;;8.50;3.35;;;;;;;;;;6253426;23;20305;-83
2021/06/24 00:41:54;;;;;;;7.03;2.70;;;;;;;;;;6252419;23;20020;-83
2021/06/24 00:44:23;;;;;;;14.18;3.70;;;;;;;;;;6227202;23;20024;-82
2021/06/24 00:46:52;;;;;;;9.80;3.17;;;;;;;;;;6253904;23;20173;-83
2021/06/24 00:49:19;;;;;;;8.73;2.88;;;;;;;;;;6227666;23;20406;-82
2021/06/24 00:51:49;;;;;;;9.65;2.92;;;;;;;;;;6252862;23;20035;-83
2021/06/24 00:54:15;;;;;;;10.25;3.05;;;;;;;;;;6225162;23;20099;-83
2021/06/24 00:56:45;;;;;;;10.35;3.15;;;;;;;;;;6226311;23;20024;-82
2021/06/24 00:59:13;;;;;;;14.23;3.05;;;;;;;;;;6251776;23;20059;-83
2021/06/24 01:01:40;;;;;;;12.55;3.40;;;;;;;;;;6226617;23;20034;-83
2021/06/24 01:04:07;;;;;;;7.70;3.03;;;;;;;;;;6226499;23;20026;-83
2021/06/24 01:06:59;;;;;;;7.80;3.42;;;;;;;;;;6252770;23;20024;-83
2021/06/24 01:09:26;;;;;;;7.50;2.95;;;;;;;;;;6226912;23;20028;-82
2021/06/24 01:11:56;;;;;;;14.50;3.42;;;;;;;;;;6226318;23;20028;-83
2021/06/24 01:14:23;;;;;;;6.10;2.90;;;;;;;;;;6226217;23;20173;-82
2021/06/24 01:17:12;;;;;;;5.60;3.03;;;;;;;;;;6253194;23;20110;-83
2021/06/24 01:19:39;;;;;;;10.40;3.50;;;;;;;;;;6228734;23;20421;-83
2021/06/24 01:22:12;;;;;;;5.18;3.03;;;;;;;;;;6253573;23;20107;-85
2021/06/24 01:24:40;;;;;;;9.57;3.45;;;;;;;;;;6258633;23;20020;-83
2021/06/24 01:27:06;;;;;;;9.70;3.42;;;;;;;;;;6233481;23;20020;-83
2021/06/24 01:29:33;;;;;;;13.07;3.80;;;;;;;;;;6226993;23;20429;-82
2021/06/24 01:32:00;;;;;;;12.85;3.97;;;;;;;;;;6225941;23;20024;-82
2021/06/24 01:34:27;;;;;;;7.57;3.40;;;;;;;;;;6252498;23;20362;-82
2021/06/24 01:36:59;;;;;;;9.63;3.15;;;;;;;;;;6226646;23;20020;-82
2021/06/24 01:39:54;;;;;;;10.63;3.28;;;;;;;;;;6225866;23;20046;-83
2021/06/24 01:42:27;;;;;;;10.90;3.60;;;;;;;;;;6227574;23;20028;-83
2021/06/24 01:44:54;;;;;;;11.00;3.65;;;;;;;;;;6226062;23;20024;-82
2021/06/24 01:47:27;;;;;;;10.02;3.85;;;;;;;;;;6226494;23;20028;-82
2021/06/24 01:49:54;;;;;;;13.25;4.22;;;;;;;;;;6252987;23;20031;-82
2021/06/24 01:52:21;;;;;;;8.10;4.10;;;;;;;;;;6253404;23;20062;-83
2021/06/24 01:54:48;;;;;;;9.98;3.92;;;;;;;;;;6253283;23;20464;-82
2021/06/24 01:57:17;;;;;;;7.18;3.50;;;;;;;;;;6227496;23;20119;-83
2021/06/24 01:59:45;;;;;;;11.02;4.60;;;;;;;;;;6198691;23;20257;-84
2021/06/24 02:02:12;;;;;;;10.60;4.55;;;;;;;;;;6221209;23;20072;-83
2021/06/24 02:04:39;;;;;;;8.43;4.00;;;;;;;;;;6225656;23;20048;-83
2021/06/24 02:07:06;;;;;;;9.55;4.43;;;;;;;;;;6226614;23;20021;-81
2021/06/24 02:09:33;;;;;;;5.75;2.78;;;;;;;;;;6225922;23;20378;-84
2021/06/24 02:12:00;;;;;;;11.35;3.90;;;;;;;;;;6217490;23;20048;-84
2021/06/24 02:14:27;;;;;;;11.18;4.45;;;;;;;;;;6221152;23;20060;-84
2021/06/24 02:16:54;;;;;;;8.18;3.75;;;;;;;;;;6222726;23;20048;-83
2021/06/24 02:19:24;;;;;;;11.20;3.95;;;;;;;;;;6221631;23;20362;-84
2021/06/24 02:21:52;;;;;;;6.85;3.90;;;;;;;;;;6222467;23;20024;-84
2021/06/24 02:24:19;;;;;;;11.23;3.80;;;;;;;;;;6223716;23;20103;-84
2021/06/24 02:26:47;;;;;;;9.52;4.38;;;;;;;;;;6221861;23;20025;-83
2021/06/24 02:29:14;;;;;;;9.90;4.20;;;;;;;;;;6221992;23;20047;-83
2021/06/24 02:31:43;;;;;;;10.07;5.00;;;;;;;;;;6223111;23;20040;-84
2021/06/24 02:34:10;;;;;;;12.05;4.80;;;;;;;;;;6223117;23;20060;-81
2021/06/24 02:36:38;;;;;;;12.48;5.50;;;;;;;;;;6222751;23;20083;-82
2021/06/24 02:39:05;;;;;;;8.32;5.20;;;;;;;;;;6222452;23;20091;-82
2021/06/24 02:41:35;;;;;;;8.57;6.20;;;;;;;;;;6223241;23;20036;-82
2021/06/24 02:44:03;;;;;;;10.63;6.78;;;;;;;;;;6218921;23;20028;-82
2021/06/24 02:46:30;;;;;;;12.02;6.53;;;;;;;;;;6220552;23;20303;-83
2021/06/24 02:48:58;;;;;;;14.07;7.63;;;;;;;;;;6220411;23;20036;-82
2021/06/24 02:51:25;;;;;;;9.45;6.93;;;;;;;;;;6220466;23;20247;-82
2021/06/24 02:53:51;;;;;;;12.88;6.50;;;;;;;;;;6221910;23;20170;-84
2021/06/24 02:56:20;;;;;;;13.52;7.57;;;;;;;;;;6222413;23;20021;-83
2021/06/24 02:58:48;;;;;;;12.55;7.43;;;;;;;;;;6242401;23;20062;-81
2021/06/24 03:01:16;;;;;;;11.70;8.07;;;;;;;;;;6227346;23;20075;-82
2021/06/24 03:03:42;;;;;;;12.48;7.95;;;;;;;;;;6226826;23;20055;-82
2021/06/24 03:06:09;;;;;;;16.17;8.02;;;;;;;;;;6252212;23;20030;-82
2021/06/24 03:08:36;;;;;;;15.25;8.63;;;;;;;;;;6250622;23;20063;-82
2021/06/24 03:11:03;;;;;;;16.48;8.85;;;;;;;;;;6223884;23;20025;-82
2021/06/24 03:13:29;;;;;;;11.00;7.88;;;;;;;;;;6225803;23;20036;-83
2021/06/24 03:15:59;;;;;;;11.15;7.78;;;;;;;;;;6251520;23;20020;-81
2021/06/24 03:18:26;;;;;;;13.50;7.72;;;;;;;;;;6252696;23;20333;-82
2021/06/24 03:20:52;;;;;;;16.25;8.55;;;;;;;;;;6254456;23;20118;-83
2021/06/24 03:23:19;;;;;;;13.38;8.45;;;;;;;;;;6225159;23;20047;-83
2021/06/24 03:25:47;;;;;;;17.15;8.70;;;;;;;;;;6252797;23;20020;-82
2021/06/24 03:28:13;;;;;;;17.70;9.80;;;;;;;;;;6226136;23;20024;-83
2021/06/24 03:30:42;;;;;;;15.57;8.07;;;;;;;;;;6254100;23;20080;-83
2021/06/24 03:33:09;;;;;;;14.18;8.25;;;;;;;;;;6259462;23;20113;-82
2021/06/24 03:35:48;;;;;;;18.63;8.65;;;;;;;;;;6245282;23;20024;-84
2021/06/24 03:38:16;;;;;;;12.63;7.03;;;;;;;;;;6240734;23;20439;-83
2021/06/24 03:40:42;;;;;;;15.57;7.75;;;;;;;;;;6227803;23;20035;-83
2021/06/24 03:43:12;;;;;;;9.63;6.25;;;;;;;;;;6252894;23;20413;-83
2021/06/24 03:45:39;;;;;;;14.43;6.05;;;;;;;;;;6254506;23;20024;-83
2021/06/24 03:48:07;;;;;;;16.38;5.28;;;;;;;;;;6254262;23;20094;-83
2021/06/24 03:50:35;;;;;;;11.45;4.82;;;;;;;;;;6251924;23;20066;-84
2021/06/24 03:53:02;;;;;;;8.93;4.75;;;;;;;;;;6226898;23;20017;-82
2021/06/24 03:55:43;;;;;;;12.02;4.45;;;;;;;;;;6226819;23;20024;-82
2021/06/24 03:58:11;;;;;;;10.27;5.63;;;;;;;;;;6252335;23;20035;-83
2021/06/24 04:00:40;;;;;;;12.15;6.72;;;;;;;;;;6250928;23;20051;-83
2021/06/24 04:03:10;;;;;;;12.15;5.80;;;;;;;;;;6252118;23;20024;-82
2021/06/24 04:05:37;;;;;;;14.43;7.22;;;;;;;;;;6251560;23;20298;-84
2021/06/24 04:08:05;;;;;;;16.05;7.57;;;;;;;;;;6225914;23;20035;-83
2021/06/24 04:10:35;;;;;;;14.23;8.70;;;;;;;;;;6226581;23;20110;-81
2021/06/24 04:13:02;;;;;;;12.77;6.38;;;;;;;;;;6225434;23;20024;-82
2021/06/24 04:15:30;;;;;;;10.32;6.78;;;;;;;;;;6224715;23;20020;-82
2021/06/24 04:17:59;;;;;;;14.05;7.15;;;;;;;;;;6251107;23;20035;-82
2021/06/24 04:20:26;;;;;;;11.43;6.97;;;;;;;;;;6251416;23;20035;-84
2021/06/24 04:22:52;;;;;;;11.55;6.25;;;;;;;;;;6252553;23;20020;-84
2021/06/24 04:25:19;;;;;;;12.10;5.60;;;;;;;;;;6225148;23;20103;-82
2021/06/24 04:28:00;;;;;;;9.02;5.65;;;;;;;;;;6251668;23;20092;-82
2021/06/24 04:30:33;;;;;;;8.00;5.20;;;;;;;;;;6253039;23;20112;-83
2021/06/24 04:33:00;;;;;;;10.02;5.65;;;;;;;;;;6233943;23;20035;-83
2021/06/24 04:35:30;;;;;;;8.75;5.72;;;;;;;;;;6236458;23;20039;-83
2021/06/24 04:37:59;;;;;;;13.82;6.32;;;;;;;;;;6236007;23;20024;-83
2021/06/24 04:40:26;;;;;;;11.38;5.97;;;;;;;;;;6227221;23;20136;-84
2021/06/24 04:42:53;;;;;;;13.43;6.65;;;;;;;;;;6227435;23;20031;-83
2021/06/24 04:45:20;;;;;;;9.70;6.70;;;;;;;;;;6228418;23;20416;-83
2021/06/24 04:47:48;;;;;;;14.02;6.45;;;;;;;;;;6229676;23;20273;-84
2021/06/24 04:50:18;;;;;;;9.18;7.00;;;;;;;;;;6234687;23;20058;-83
2021/06/24 04:52:45;;;;;;;12.95;6.30;;;;;;;;;;6230855;23;20313;-85
2021/06/24 04:55:12;;;;;;;12.13;6.78;;;;;;;;;;6252126;23;20028;-83
2021/06/24 04:57:40;;;;;;;10.98;7.25;;;;;;;;;;6251075;23;20034;-83
2021/06/24 05:00:10;;;;;;;10.35;6.03;;;;;;;;;;6224878;23;20115;-82
2021/06/24 05:02:37;;;;;;;13.30;7.22;;;;;;;;;;6226604;23;20159;-82
2021/06/24 05:05:07;;;;;;;12.95;8.02;;;;;;;;;;6224285;23;20060;-82
2021/06/24 05:07:34;;;;;;;11.25;7.30;;;;;;;;;;6222681;23;20032;-84
2021/06/24 05:10:35;;;;;;;12.48;6.88;;;;;;;;;;6250657;23;20028;-83
2021/06/24 05:13:02;;;;;;;14.85;7.65;;;;;;;;;;6250354;23;20028;-84
2021/06/24 05:15:29;;;;;;;9.60;6.53;;;;;;;;;;6224435;23;20032;-84
2021/06/24 05:17:57;;;;;;;10.13;6.25;;;;;;;;;;6226028;23;20078;-82
2021/06/24 05:20:44;;;;;;;14.50;6.22;;;;;;;;;;6227655;23;20020;-82
2021/06/24 05:23:12;;;;;;;9.95;6.05;;;;;;;;;;6227566;23;20051;-83
2021/06/24 05:25:39;;;;;;;14.48;4.97;;;;;;;;;;6222908;23;20024;-84
2021/06/24 05:28:09;;;;;;;8.27;4.57;;;;;;;;;;6224983;23;20042;-83
2021/06/24 05:30:46;;;;;;;9.90;4.57;;;;;;;;;;6227779;23;20094;-83
2021/06/24 05:33:13;;;;;;;7.88;4.00;;;;;;;;;;6253916;23;20028;-83
2021/06/24 05:35:42;;;;;;;12.25;4.35;;;;;;;;;;6249328;23;20344;-84
2021/06/24 05:38:34;;;;;;;10.27;3.95;;;;;;;;;;6225676;23;20051;-83
2021/06/24 05:41:01;;;;;;;14.98;3.42;;;;;;;;;;6251203;23;20024;-84
2021/06/24 05:43:28;;;;;;;12.40;3.65;;;;;;;;;;6250600;23;20067;-83
2021/06/24 05:46:01;;;;;;;7.60;3.35;;;;;;;;;;6252151;23;20047;-83
2021/06/24 05:48:28;;;;;;;7.50;3.30;;;;;;;;;;6248160;23;20024;-84
2021/06/24 05:50:57;;;;;;;9.88;2.78;;;;;;;;;;6221101;23;20062;-83
2021/06/24 05:53:30;;;;;;;6.45;2.80;;;;;;;;;;6218836;23;20024;-83
2021/06/24 05:56:02;;;;;;;5.82;3.00;;;;;;;;;;6245249;23;20034;-83
2021/06/24 05:58:32;;;;;;;12.10;3.00;;;;;;;;;;6244053;23;20104;-81
2021/06/24 06:01:15;;;;;;;7.45;2.83;;;;;;;;;;6240286;23;20024;-81
2021/06/24 06:03:42;;;;;;;6.38;2.83;;;;;;;;;;6239772;23;20028;-83
2021/06/24 06:06:08;;;;;;;11.75;2.78;;;;;;;;;;6214091;23;20121;-83
2021/06/24 06:08:35;;;;;;;7.65;2.63;;;;;;;;;;6214633;23;20109;-81
2021/06/24 06:11:05;;;;;;;7.47;2.90;;;;;;;;;;6240800;23;20133;-82
2021/06/24 06:13:33;;;;;;;8.50;2.20;;;;;;;;;;6215913;23;20086;-82
2021/06/24 06:16:00;;;;;;;6.50;2.17;;;;;;;;;;6217355;23;20024;-82
2021/06/24 06:18:26;;;;;;;7.80;2.72;;;;;;;;;;6244672;23;20095;-82
2021/06/24 06:21:00;;;;;;;6.45;2.80;;;;;;;;;;6217619;23;20205;-82
2021/06/24 06:23:28;;;;;;;9.20;2.75;;;;;;;;;;6246531;23;20024;-82
2021/06/24 06:25:59;;;;;;;9.25;3.00;;;;;;;;;;6247370;23;20024;-82
2021/06/24 06:28:26;;;;;;;7.72;2.15;;;;;;;;;;6245624;23;20274;-82
2021/06/24 06:30:59;;;;;;;5.97;2.10;;;;;;;;;;6216179;23;20409;-85
2021/06/24 06:33:26;;;;;;;7.80;2.22;;;;;;;;;;6218309;23;20028;-81
2021/06/24 06:35:56;;;;;;;5.85;2.00;;;;;;;;;;6218586;23;20129;-83
2021/06/24 06:38:26;;;;;;;6.95;2.17;;;;;;;;;;6244518;23;20095;-82
2021/06/24 06:40:53;;;;;;;4.82;2.25;;;;;;;;;;6244121;23;20114;-82
2021/06/24 06:43:20;;;;;;;7.72;2.30;;;;;;;;;;6217995;23;20102;-83
2021/06/24 06:45:52;;;;;;;14.75;2.25;;;;;;;;;;6216960;23;20291;-82
2021/06/24 06:48:21;;;;;;;7.07;2.15;;;;;;;;;;6244713;23;20024;-82
2021/06/24 06:50:51;;;;;;;5.30;1.90;;;;;;;;;;6245141;23;20036;-82
2021/06/24 06:53:33;;;;;;;10.02;2.53;;;;;;;;;;6223883;23;20058;-83
2021/06/24 06:56:03;;;;;;;6.57;2.25;;;;;;;;;;6263759;23;20016;-82
2021/06/24 06:58:30;;;;;;;6.63;1.75;;;;;;;;;;6230537;23;20024;-82
2021/06/24 07:00:58;;;;;;;5.75;2.22;;;;;;;;;;6217524;23;20059;-83
2021/06/24 07:03:24;;;;;;;5.53;1.83;;;;;;;;;;6243415;23;20024;-82
2021/06/24 07:05:51;;;;;;;7.78;2.10;;;;;;;;;;6217705;23;20032;-82
2021/06/24 07:08:18;;;;;;;5.55;1.70;;;;;;;;;;6242938;23;20024;-82
2021/06/24 07:10:54;;;;;;;5.30;1.60;;;;;;;;;;6248376;23;20028;-82
2021/06/24 07:13:23;;;;;;;8.25;2.20;;;;;;;;;;6224667;23;20028;-82
2021/06/24 07:15:50;;;;;;;5.95;1.63;;;;;;;;;;6217469;23;20071;-83
2021/06/24 07:18:21;;;;;;;8.88;2.45;;;;;;;;;;6243690;23;20283;-82
2021/06/24 07:20:47;;;;;;;6.47;2.20;;;;;;;;;;6243667;23;20028;-84
2021/06/24 07:23:16;;;;;;;6.45;2.45;;;;;;;;;;6219494;23;20023;-84
2021/06/24 07:25:43;;;;;;;7.07;2.28;;;;;;;;;;6247889;23;20035;-83
2021/06/24 07:28:10;;;;;;;7.78;2.05;;;;;;;;;;6219298;23;20119;-83
2021/06/24 07:30:37;;;;;;;8.02;2.22;;;;;;;;;;6218656;23;20039;-83
2021/06/24 07:33:04;;;;;;;6.38;2.10;;;;;;;;;;6219670;23;20047;-82
2021/06/24 07:35:32;;;;;;;8.50;2.50;;;;;;;;;;6246737;23;20028;-83
2021/06/24 07:37:59;;;;;;;11.27;2.67;;;;;;;;;;6246617;23;20409;-83
2021/06/24 07:40:26;;;;;;;5.80;2.42;;;;;;;;;;6218888;23;20024;-83
2021/06/24 07:42:53;;;;;;;7.30;2.83;;;;;;;;;;6217027;23;20333;-83
2021/06/24 07:45:22;;;;;;;4.80;2.13;;;;;;;;;;6242570;23;20126;-83
2021/06/24 07:47:53;;;;;;;10.88;1.80;;;;;;;;;;6220481;23;20051;-83
2021/06/24 07:50:20;;;;;;;9.35;2.13;;;;;;;;;;6218316;23;20042;-85
2021/06/24 07:52:46;;;;;;;6.38;2.03;;;;;;;;;;6228743;23;20035;-84
2021/06/24 07:55:20;;;;;;;7.85;1.85;;;;;;;;;;6248184;23;20027;-84
2021/06/24 07:57:47;;;;;;;5.05;1.88;;;;;;;;;;6248932;23;20083;-83
2021/06/24 08:00:17;;;;;;;4.60;1.73;;;;;;;;;;6243764;23;20044;-83
2021/06/24 08:03:11;;;;;;;6.18;1.75;;;;;;;;;;6245308;23;20020;-83
2021/06/24 08:05:38;;;;;;;5.93;1.85;;;;;;;;;;6219316;23;20115;-83
2021/06/24 08:08:05;;;;;;;7.80;1.90;;;;;;;;;;6244259;23;20024;-82
2021/06/24 08:10:47;;;;;;;4.90;1.75;;;;;;;;;;6226006;23;20030;-83
2021/06/24 08:13:13;;;;;;;5.60;2.00;;;;;;;;;;6216993;23;20021;-84
2021/06/24 08:15:40;;;;;;;8.70;3.13;;;;;;;;;;6246606;23;20024;-83
2021/06/24 08:18:18;;;;;;;4.75;1.77;;;;;;;;;;6215139;23;20058;-83
2021/06/24 08:20:45;;;;;;;5.80;1.80;;;;;;;;;;6220000;23;20071;-82
2021/06/24 08:23:12;;;;;;;8.50;2.60;;;;;;;;;;6218925;23;20023;-82
2021/06/24 08:25:39;;;;;;;5.32;2.47;;;;;;;;;;6220593;23;20042;-83
2021/06/24 08:28:06;;;;;;;6.53;2.20;;;;;;;;;;6219722;23;20020;-82
2021/06/24 08:30:37;;;;;;;9.93;3.47;;;;;;;;;;6217260;23;20314;-82
2021/06/24 08:33:04;;;;;;;8.73;2.55;;;;;;;;;;6217336;23;20082;-83
2021/06/24 08:35:31;;;;;;;9.90;2.70;;;;;;;;;;6241124;23;20051;-82
2021/06/24 08:37:58;;;;;;;7.40;2.55;;;;;;;;;;6217310;23;20103;-82
2021/06/24 08:40:25;;;;;;;7.45;2.53;;;;;;;;;;6215474;23;20280;-82
2021/06/24 08:42:53;;;;;;;8.50;3.40;;;;;;;;;;6242855;23;20076;-82
2021/06/24 08:45:19;;;;;;;11.73;3.72;;;;;;;;;;6243154;23;20226;-82
2021/06/24 08:47:49;;;;;;;10.90;3.70;;;;;;;;;;6217385;23;20027;-82
2021/06/24 08:50:22;;;;;;;5.65;3.28;;;;;;;;;;6225879;23;20239;-83
2021/06/24 08:52:50;;;;;;;11.30;3.50;;;;;;;;;;6217558;23;20042;-82
2021/06/24 08:55:18;;;;;;;10.13;3.30;;;;;;;;;;6245454;23;20028;-84
2021/06/24 08:57:45;;;;;;;8.85;3.33;;;;;;;;;;6219719;23;20098;-81
2021/06/24 09:00:12;;;;;;;6.13;3.17;;;;;;;;;;6245155;23;20059;-83
2021/06/24 09:02:40;;;;;;;9.07;2.95;;;;;;;;;;6221807;23;20024;-84
2021/06/24 09:05:11;;;;;;;7.95;3.75;;;;;;;;;;6221353;23;20131;-83
2021/06/24 09:07:54;;;;;;;8.23;3.60;;;;;;;;;;6244242;23;20091;-82
2021/06/24 09:10:22;;;;;;;7.18;3.15;;;;;;;;;;6218153;23;20082;-83
2021/06/24 09:13:02;;;;;;;8.10;3.95;;;;;;;;;;6218352;23;20078;-82
2021/06/24 09:15:37;;;;;;;7.88;3.45;;;;;;;;;;6244824;23;20024;-82
2021/06/24 09:18:26;;;;;;;7.38;3.97;;;;;;;;;;6244546;23;20024;-82
2021/06/24 09:21:17;;;;;;;10.45;3.38;;;;;;;;;;6243327;23;20296;-82
2021/06/24 09:23:44;;;;;;;6.45;3.22;;;;;;;;;;6246519;23;20240;-82
2021/06/24 09:26:15;;;;;;;5.80;3.00;;;;;;;;;;6245058;23;20020;-82
2021/06/24 09:28:45;;;;;;;7.20;3.05;;;;;;;;;;6242469;23;20024;-82
2021/06/24 09:31:23;;;;;;;6.43;2.67;;;;;;;;;;6244586;23;20206;-82
2021/06/24 09:33:50;;;;;;;6.53;3.38;;;;;;;;;;6220311;23;20028;-84
2021/06/24 09:36:42;;;;;;;7.20;3.00;;;;;;;;;;6246247;23;20025;-82
2021/06/24 09:39:24;;;;;;;11.02;3.08;;;;;;;;;;6242976;23;20043;-83
2021/06/24 09:42:13;;;;;;;7.90;3.58;;;;;;;;;;6243108;23;20240;-83
2021/06/24 09:44:40;;;;;;;6.40;3.08;;;;;;;;;;6239204;23;20539;-83
2021/06/24 09:47:37;;;;;;;7.38;2.47;;;;;;;;;;6218685;23;20051;-83
2021/06/24 09:50:08;;;;;;;3.75;2.30;;;;;;;;;;6226482;23;20247;-83
2021/06/24 09:52:35;;;;;;;4.07;2.08;;;;;;;;;;6242287;23;20028;-82
2021/06/24 09:55:09;;;;;;;3.47;2.28;;;;;;;;;;6242963;23;20032;-82
2021/06/24 09:57:37;;;;;;;3.97;2.50;;;;;;;;;;6243450;23;20050;-83
2021/06/24 10:00:24;;;;;;;5.05;2.30;;;;;;;;;;6218583;23;20042;-83
2021/06/24 10:03:14;;;;;;;4.97;2.10;;;;;;;;;;6218053;23;20075;-82
2021/06/24 10:05:42;;;;;;;4.60;2.22;;;;;;;;;;6246246;23;20024;-82
2021/06/24 10:08:09;;;;;;;5.68;2.67;;;;;;;;;;6219911;23;20020;-82
2021/06/24 10:10:36;;;;;;;4.95;2.28;;;;;;;;;;6220814;23;20031;-83
2021/06/24 10:13:07;;;;;;;4.93;2.13;;;;;;;;;;6218863;23;20028;-83
2021/06/24 10:15:34;;;;;;;5.60;2.20;;;;;;;;;;6227588;22;20030;-82
2021/06/24 10:18:06;;;;;;;3.75;2.30;;;;;;;;;;6237261;22;20062;-83
2021/06/24 10:20:51;;;;;;;4.57;2.28;;;;;;;;;;6228893;23;20090;-83
2021/06/24 10:23:18;;;;;;;6.65;2.22;;;;;;;;;;6216900;23;20378;-84
2021/06/24 10:25:48;;;;;;;6.05;1.88;;;;;;;;;;6243874;23;20403;-81
2021/06/24 10:28:16;;;;;;;6.30;2.47;;;;;;;;;;6219280;23;20283;-83
2021/06/24 10:30:43;;;;;;;5.38;2.03;;;;;;;;;;6245513;23;20378;-82
2021/06/24 10:33:12;;;;;;;3.90;1.83;;;;;;;;;;6217266;23;20043;-83
2021/06/24 10:35:42;;;;;;;5.40;1.90;;;;;;;;;;6249139;23;20020;-84
2021/06/24 10:38:10;;;;;;;2.70;1.50;;;;;;;;;;6245715;23;20035;-84
2021/06/24 10:40:38;;;;;;;2.95;1.70;;;;;;;;;;6224079;23;20171;-82
2021/06/24 10:43:08;;;;;;;6.78;2.50;;;;;;;;;;6253784;23;20125;-82
2021/06/24 10:45:42;;;;;;;5.63;1.83;;;;;;;;;;6257936;23;20035;-82
2021/06/24 10:48:29;;;;;;;7.45;1.98;;;;;;;;;;6243264;23;20183;-82
2021/06/24 10:50:57;;;;;;;4.82;1.30;;;;;;;;;;6215813;23;20028;-83
2021/06/24 10:53:27;;;;;;;3.85;1.85;;;;;;;;;;6243151;23;20238;-84
2021/06/24 10:55:55;;;;;;;2.75;1.60;;;;;;;;;;6216594;23;20355;-82
2021/06/24 10:58:26;;;;;;;4.75;1.85;;;;;;;;;;6239570;23;20035;-82
2021/06/24 11:01:19;;;;;;;3.42;1.80;;;;;;;;;;6242912;23;20524;-82
2021/06/24 11:03:50;;;;;;;6.53;2.53;;;;;;;;;;6241205;23;20119;-82
2021/06/24 11:06:21;;;;;;;5.60;2.17;;;;;;;;;;6217490;23;20110;-81
2021/06/24 11:08:48;;;;;;;3.63;2.45;;;;;;;;;;6215372;23;20028;-82
2021/06/24 11:11:22;;;;;;;4.60;2.22;;;;;;;;;;6244646;23;20032;-83
2021/06/24 11:13:50;;;;;;;5.63;2.28;;;;;;;;;;6244318;23;20024;-82
2021/06/24 11:16:26;;;;;;;6.93;2.30;;;;;;;;;;6247599;23;20200;-82
2021/06/24 11:19:12;;;;;;;6.00;3.65;;;;;;;;;;6226165;23;20459;-84
2021/06/24 11:21:38;;;;;;;4.18;2.05;;;;;;;;;;6218575;23;20082;-82
2021/06/24 11:24:05;;;;;;;5.78;2.28;;;;;;;;;;6218727;23;20031;-82
2021/06/24 11:26:39;;;;;;;8.02;2.28;;;;;;;;;;6224366;23;20314;-84
2021/06/24 11:29:26;;;;;;;6.60;2.38;;;;;;;;;;6220987;23;20119;-83
2021/06/24 11:32:05;;;;;;;4.18;2.60;;;;;;;;;;6214819;23;20047;-82
2021/06/24 11:37:13;;;;;;;4.82;2.45;;;;;;;;;;6241662;23;20032;-82
2021/06/24 11:39:40;;;;;;;6.80;2.65;;;;;;;;;;6215548;23;20445;-83
2021/06/24 11:42:21;;;;;;;5.88;2.55;;;;;;;;;;6217235;23;20410;-82
2021/06/24 11:44:49;;;;;;;6.15;2.10;;;;;;;;;;6237378;23;20080;-82
2021/06/24 11:47:17;;;;;;;2.60;2.08;;;;;;;;;;6215975;23;20165;-82
2021/06/24 12:04:05;;;;;;;6.30;2.13;;;;;;;;;;6249859;23;20082;-83
2021/06/24 12:09:55;;;;;;;3.70;2.03;;;;;;;;;;6255157;22;20188;-82
2021/06/24 12:12:30;;;;;;;6.38;1.70;;;;;;;;;;6225130;23;20032;-82
2021/06/24 12:14:58;;;;;;;4.55;1.65;;;;;;;;;;6222657;23;20388;-83
2021/06/24 12:17:41;;;;;;;4.35;2.20;;;;;;;;;;6222504;23;20378;-83
2021/06/24 12:20:09;;;;;;;7.18;3.58;;;;;;;;;;6221645;23;20028;-82
2021/06/24 12:22:52;;;;;;;5.43;2.88;;;;;;;;;;6221550;23;20070;-82
2021/06/24 12:25:23;;;;;;;4.25;2.25;;;;;;;;;;6220328;23;20168;-83
2021/06/24 12:27:51;;;;;;;7.15;2.20;;;;;;;;;;6244820;23;20024;-83
2021/06/24 12:30:20;;;;;;;6.70;3.40;;;;;;;;;;6225610;23;20024;-84
2021/06/24 12:33:00;;;;;;;9.07;5.35;;;;;;;;;;6220654;23;20036;-83
2021/06/24 12:35:29;;;;;;;11.55;4.45;;;;;;;;;;6217891;23;20095;-83
2021/06/24 12:38:00;;;;;;;12.43;5.30;;;;;;;;;;6216469;23;20043;-83
2021/06/24 12:40:31;;;;;;;9.50;4.50;;;;;;;;;;6216725;23;20025;-84
2021/06/24 12:43:21;;;;;;;10.73;4.97;;;;;;;;;;6221343;23;20027;-84
2021/06/24 12:45:50;;;;;;;7.03;5.05;;;;;;;;;;6219442;23;20036;-84
2021/06/24 12:48:27;;;;;;;6.10;3.90;;;;;;;;;;6216662;23;20083;-83
2021/06/24 12:50:55;;;;;;;6.53;3.03;;;;;;;;;;6215833;23;20034;-83
2021/06/24 12:53:30;;;;;;;9.05;3.35;;;;;;;;;;6243863;23;20036;-84
2021/06/24 12:55:57;;;;;;;6.65;3.47;;;;;;;;;;6245417;23;20115;-83
2021/06/24 12:58:31;;;;;;;5.43;3.08;;;;;;;;;;6242763;23;20487;-85
2021/06/24 13:01:08;;;;;;;5.68;3.03;;;;;;;;;;6217842;23;20067;-83
2021/06/24 13:03:39;;;;;;;6.28;3.40;;;;;;;;;;6217244;23;20020;-84
2021/06/24 13:06:15;;;;;;;7.60;3.25;;;;;;;;;;6223402;23;20042;-85
2021/06/24 13:08:51;;;;;;;3.92;3.05;;;;;;;;;;6218910;23;20110;-85
2021/06/24 13:11:20;;;;;;;7.32;3.35;;;;;;;;;;6245299;23;20035;-84
2021/06/24 13:14:00;;;;;;;6.97;3.17;;;;;;;;;;6218738;23;20020;-85
2021/06/24 13:16:45;;;;;;;4.15;2.40;;;;;;;;;;6219249;23;20228;-85
2021/06/24 13:19:24;;;;;;;3.30;2.30;;;;;;;;;;6239885;23;20283;-86
2021/06/24 13:21:51;;;;;;;7.55;2.53;;;;;;;;;;6243419;23;20172;-85
2021/06/24 13:24:18;;;;;;;7.93;2.65;;;;;;;;;;6242517;23;20176;-84
2021/06/24 13:26:45;;;;;;;9.10;2.80;;;;;;;;;;6215496;23;20225;-83
2021/06/24 13:29:20;;;;;;;10.60;2.92;;;;;;;;;;6218733;23;20035;-84
2021/06/24 13:31:49;;;;;;;6.75;2.70;;;;;;;;;;6246069;23;20028;-84
2021/06/24 13:34:16;;;;;;;4.82;2.50;;;;;;;;;;6244285;23;20413;-84
2021/06/24 13:36:44;;;;;;;10.27;3.55;;;;;;;;;;6214770;23;20046;-84
2021/06/24 13:39:33;;;;;;;7.70;2.33;;;;;;;;;;6218848;23;20059;-84
2021/06/24 13:42:00;;;;;;;7.28;2.42;;;;;;;;;;6259740;22;20026;-84
2021/06/24 13:44:27;;;;;;;5.40;2.00;;;;;;;;;;6261253;22;20012;-85
2021/06/24 13:46:54;;;;;;;5.72;1.95;;;;;;;;;;6223115;23;20031;-84
2021/06/24 13:49:22;;;;;;;4.80;2.33;;;;;;;;;;6215954;23;20249;-84
2021/06/24 13:51:51;;;;;;;3.53;2.10;;;;;;;;;;6218258;23;20028;-85
2021/06/24 13:54:22;;;;;;;7.82;2.63;;;;;;;;;;6244532;23;20039;-85
2021/06/24 13:56:53;;;;;;;3.53;2.63;;;;;;;;;;6245840;23;20035;-84
2021/06/24 13:59:20;;;;;;;4.82;2.10;;;;;;;;;;6215212;23;20058;-85
2021/06/24 14:01:49;;;;;;;8.27;2.67;;;;;;;;;;6220239;23;20024;-85
2021/06/24 14:04:19;;;;;;;3.10;2.10;;;;;;;;;;6248623;23;20024;-87
2021/06/24 14:06:47;;;;;;;4.65;1.83;;;;;;;;;;6223071;23;20026;-84
2021/06/24 14:09:16;;;;;;;3.25;1.55;;;;;;;;;;6246392;23;20324;-84
2021/06/24 14:11:45;;;;;;;5.90;2.10;;;;;;;;;;6219664;23;20024;-85
2021/06/24 14:14:11;;;;;;;5.20;1.90;;;;;;;;;;6248632;23;20047;-86
2021/06/24 14:16:38;;;;;;;11.43;2.75;;;;;;;;;;6245200;23;20211;-86
2021/06/24 14:19:28;;;;;;;9.60;3.45;;;;;;;;;;6220292;23;20035;-87
2021/06/24 14:21:59;;;;;;;10.90;3.40;;;;;;;;;;6219369;23;20035;-85
2021/06/24 14:24:26;;;;;;;7.18;2.88;;;;;;;;;;6243897;23;20024;-84
2021/06/24 14:26:57;;;;;;;8.95;2.53;;;;;;;;;;6245176;23;20062;-84
2021/06/24 14:29:25;;;;;;;8.20;3.47;;;;;;;;;;6217929;23;20024;-83
2021/06/24 14:31:52;;;;;;;3.50;1.67;;;;;;;;;;6223533;23;20051;-84
2021/06/24 14:34:21;;;;;;;9.25;2.17;;;;;;;;;;6255105;23;20099;-85
2021/06/24 14:36:48;;;;;;;6.30;2.20;;;;;;;;;;6227847;23;20038;-85
2021/06/24 14:39:17;;;;;;;4.22;1.90;;;;;;;;;;6249086;23;20047;-86
2021/06/24 14:41:44;;;;;;;7.82;2.35;;;;;;;;;;6229018;23;20024;-86
2021/06/24 14:44:19;;;;;;;4.90;3.20;;;;;;;;;;6228023;23;20032;-85
2021/06/24 14:46:46;;;;;;;6.88;2.40;;;;;;;;;;6252500;23;20093;-84
2021/06/24 14:49:31;;;;;;;7.80;2.78;;;;;;;;;;6252035;23;20034;-84
2021/06/24 14:51:58;;;;;;;9.18;2.95;;;;;;;;;;6254068;23;20051;-85
2021/06/24 14:54:25;;;;;;;11.05;3.00;;;;;;;;;;6224305;23;20016;-87
2021/06/24 14:56:52;;;;;;;13.50;3.70;;;;;;;;;;6244960;23;20099;-84
2021/06/24 14:59:21;;;;;;;9.88;2.70;;;;;;;;;;6219186;23;20291;-85
2021/06/24 15:01:48;;;;;;;7.05;2.38;;;;;;;;;;6220960;23;20074;-85
2021/06/24 15:04:19;;;;;;;4.07;2.00;;;;;;;;;;6217866;23;20024;-85
2021/06/24 15:06:49;;;;;;;4.07;2.35;;;;;;;;;;6218373;23;20109;-84
2021/06/24 15:09:16;;;;;;;8.88;2.40;;;;;;;;;;6217603;23;20023;-85
2021/06/24 15:11:44;;;;;;;5.20;2.60;;;;;;;;;;6221732;23;20024;-85
2021/06/24 15:14:30;;;;;;;8.63;3.25;;;;;;;;;;6227434;23;20042;-86
2021/06/24 15:16:56;;;;;;;4.05;2.53;;;;;;;;;;6250013;23;20025;-83